Atqasuk, Alaska
Current Conditions -  °F | °C
As of 2:56 PM on Thursday 27 Nov 2014 (Local Time) from PATQ Reporting Station
Clear Clear  
Wind Chill: -20°   Ceiling: Unl
Heat Index: -4°   Visibility: 10mi
Dew Point: -8°   Wind: 9mph
Humidity: 83%   Direction: 120°ESE
Pressure: 30.18"   Gusts: NA
Location:  70.47°N, 157.4°W
Report Text: PATQ 272356Z AUTO 12008KT 10SM CLR M20/M22 A3018 RMK AO2 TSNO 56014 T12001222 11188 21205 SLP228 $
Loading
Personal Weather Stations






























Interactive Weather Map New forecast layout! Learn more

10-Day Weather Forecast

Advertisements
Track Severe Weather on mobile